Time;durP1;ratioP1;P1;durP2;ratioP2;P2;SDS_P1;SDS_P2;PMS_P1;PMS_P2;Temp;Humidity;BMP_temperature;BMP_pressure;BME280_temperature;BME280_humidity;BME280_pressure;Samples;Min_cycle;Max_cycle;Signal;HPM_P1;HPM_P2
2024/01/16 00:42:51;;;;;;;7.80;4.23;;;;;;;1.92;63.42;100030.88;4699631;30;20435;-78
2024/01/16 00:53:50;;;;;;;8.23;3.70;;;;;;;1.83;63.62;100025.34;4706558;30;20287;-78
2024/01/16 07:55:30;;;;;;;17.40;6.07;;;;;;;1.22;65.83;100088.63;4817311;23;20665;-65
2024/01/16 07:58:31;;;;;;;16.60;7.33;;;;;;;1.33;65.86;100087.91;4857789;29;20223;-63
2024/01/16 08:01:29;;;;;;;11.40;5.20;;;;;;;1.46;65.23;100086.22;4855966;29;20304;-66
2024/01/16 08:07:52;;;;;;;15.00;5.77;;;;;;;1.30;65.47;100091.59;4815384;29;20302;-65
2024/01/16 08:10:27;;;;;;;11.30;5.70;;;;;;;1.33;65.48;100094.00;4852492;29;20229;-66
2024/01/16 08:13:15;;;;;;;12.60;5.30;;;;;;;1.51;65.21;100089.34;4855257;29;20234;-66
2024/01/16 08:16:08;;;;;;;12.50;5.40;;;;;;;1.51;64.83;100084.97;4840031;29;20574;-68
2024/01/16 08:18:40;;;;;;;12.53;5.83;;;;;;;1.52;64.66;100091.88;4844150;29;20239;-65
2024/01/16 08:21:09;;;;;;;14.07;6.47;;;;;;;1.66;64.56;100109.28;4854674;29;20226;-65
2024/01/16 08:23:37;;;;;;;13.27;5.80;;;;;;;1.67;64.34;100095.25;4854569;29;20339;-65
2024/01/16 08:26:09;;;;;;;13.50;6.00;;;;;;;1.75;64.29;100103.44;4855398;29;20219;-65
2024/01/16 08:28:39;;;;;;;15.40;6.47;;;;;;;1.83;63.88;100100.31;4855318;29;20206;-66
2024/01/16 08:31:07;;;;;;;13.67;6.43;;;;;;;1.97;63.59;100108.06;4856031;29;20227;-65
2024/01/16 08:33:37;;;;;;;14.03;6.67;;;;;;;2.07;63.13;100105.69;4857057;29;20219;-66
2024/01/16 08:36:14;;;;;;;15.77;6.37;;;;;;;2.08;63.06;100112.59;4854738;29;20268;-65
2024/01/16 08:38:42;;;;;;;18.03;6.40;;;;;;;2.10;63.07;100114.19;4858294;29;20235;-65
2024/01/16 08:41:11;;;;;;;12.57;6.67;;;;;;;2.15;62.86;100125.16;4856886;29;20841;-65
2024/01/16 08:43:41;;;;;;;17.83;6.30;;;;;;;2.22;62.55;100123.78;4856060;29;20215;-65
2024/01/16 08:46:09;;;;;;;13.57;6.07;;;;;;;2.31;62.28;100129.34;4856520;29;20940;-64
2024/01/16 08:48:40;;;;;;;19.20;7.67;;;;;;;2.33;62.24;100132.69;4855960;29;20609;-65
2024/01/16 08:51:13;;;;;;;15.83;6.90;;;;;;;2.39;62.07;100140.97;4858789;29;20241;-65
2024/01/16 08:53:45;;;;;;;16.93;7.00;;;;;;;2.46;61.64;100128.31;4856264;29;20246;-65
2024/01/16 08:56:17;;;;;;;18.37;6.90;;;;;;;2.41;61.69;100122.53;4856856;29;20229;-65
2024/01/16 08:58:48;;;;;;;14.43;6.37;;;;;;;2.47;61.69;100128.19;4853495;29;20247;-64
2024/01/16 09:01:17;;;;;;;15.30;6.57;;;;;;;2.46;61.62;100125.72;4856361;29;20238;-64
2024/01/16 09:03:46;;;;;;;15.27;6.57;;;;;;;2.45;61.72;100140.56;4856561;29;20215;-63
2024/01/16 09:06:28;;;;;;;18.40;7.17;;;;;;;2.55;61.31;100135.53;4855237;29;20674;-64
2024/01/16 09:08:56;;;;;;;17.70;6.60;;;;;;;2.61;61.09;100141.19;4852970;29;20219;-64
2024/01/16 09:11:25;;;;;;;15.53;6.60;;;;;;;2.60;61.08;100133.44;4857311;29;20210;-64
2024/01/16 09:13:56;;;;;;;16.00;6.37;;;;;;;2.58;61.31;100136.16;4856257;29;20997;-64
2024/01/16 09:16:26;;;;;;;14.77;6.90;;;;;;;2.53;61.39;100137.44;4856147;29;21023;-64
2024/01/16 09:18:57;;;;;;;13.63;7.00;;;;;;;2.43;61.61;100152.06;4857310;29;20238;-64
2024/01/16 09:21:26;;;;;;;13.47;6.93;;;;;;;2.44;61.87;100146.75;4856563;29;20207;-65
2024/01/16 09:24:12;;;;;;;16.10;6.13;;;;;;;2.36;62.16;100148.19;4859268;29;20966;-64
2024/01/16 09:26:54;;;;;;;15.40;6.00;;;;;;;2.19;62.92;100144.94;4855907;29;20274;-63
2024/01/16 09:29:24;;;;;;;19.37;7.37;;;;;;;2.12;63.16;100143.66;4858088;29;20219;-64
2024/01/16 09:31:54;;;;;;;18.67;7.20;;;;;;;2.14;63.45;100146.19;4855594;29;20209;-63
2024/01/16 09:34:22;;;;;;;16.60;6.47;;;;;;;2.33;63.08;100149.25;4858341;29;20287;-64
2024/01/16 09:36:50;;;;;;;16.70;7.20;;;;;;;2.41;62.78;100144.31;4856956;29;20212;-64
2024/01/16 09:39:18;;;;;;;20.10;7.50;;;;;;;2.36;62.94;100145.59;4858492;29;20236;-67
2024/01/16 09:41:47;;;;;;;17.70;7.67;;;;;;;2.44;62.89;100144.13;4854728;29;20671;-64
2024/01/16 09:44:18;;;;;;;18.03;7.40;;;;;;;2.46;63.37;100126.50;4856451;29;20215;-63
2024/01/16 09:46:49;;;;;;;26.07;8.07;;;;;;;2.56;63.72;100134.56;4855450;29;20282;-63
2024/01/16 09:49:18;;;;;;;16.63;7.03;;;;;;;2.64;63.64;100133.09;4857646;29;20221;-63
2024/01/16 09:51:47;;;;;;;15.77;7.20;;;;;;;2.74;62.59;100135.09;4856221;29;20616;-63
2024/01/16 09:54:15;;;;;;;11.93;6.17;;;;;;;2.75;62.43;100142.84;4854767;29;21240;-64
2024/01/16 09:56:45;;;;;;;14.67;6.53;;;;;;;2.76;62.01;100135.81;4854237;29;20617;-64
2024/01/16 09:59:18;;;;;;;14.97;7.00;;;;;;;2.87;61.76;100131.53;4854780;29;20236;-65
2024/01/16 10:01:49;;;;;;;16.33;6.60;;;;;;;2.79;61.56;100125.16;4857488;29;20298;-64
2024/01/16 10:04:17;;;;;;;18.20;7.80;;;;;;;2.63;61.50;100123.59;4856618;29;21113;-64
2024/01/16 10:06:46;;;;;;;13.10;6.73;;;;;;;2.49;62.15;100128.94;4853443;29;20219;-64
2024/01/16 10:09:17;;;;;;;17.47;7.47;;;;;;;2.47;62.44;100122.97;4858013;29;20226;-65
2024/01/16 10:11:46;;;;;;;18.93;6.97;;;;;;;2.60;62.22;100129.03;4856412;29;20795;-64
2024/01/16 10:14:14;;;;;;;27.73;8.20;;;;;;;2.80;61.66;100132.06;4856941;29;20726;-64
2024/01/16 10:17:02;;;;;;;21.37;7.50;;;;;;;2.95;61.14;100128.38;4856875;29;20224;-64
2024/01/16 10:19:31;;;;;;;15.97;7.53;;;;;;;3.04;60.82;100130.34;4856702;29;20241;-64
2024/01/16 10:22:13;;;;;;;17.13;7.10;;;;;;;3.11;60.19;100131.56;4857857;29;20402;-64
2024/01/16 10:24:42;;;;;;;16.37;6.77;;;;;;;3.17;60.05;100138.97;4856554;29;20237;-64
2024/01/16 10:27:09;;;;;;;20.60;7.23;;;;;;;3.33;59.77;100139.59;4856707;29;20220;-64
2024/01/16 10:29:37;;;;;;;16.13;6.83;;;;;;;3.56;59.27;100137.06;4855937;29;20323;-65
2024/01/16 10:32:29;;;;;;;16.70;8.20;;;;;;;3.78;58.39;100132.75;4856065;29;20237;-64
2024/01/16 10:35:05;;;;;;;13.53;6.30;;;;;;;4.08;57.62;100132.28;4857442;29;20278;-65
2024/01/16 10:37:43;;;;;;;16.10;7.03;;;;;;;4.38;56.71;100134.38;4854867;29;20247;-64
2024/01/16 10:40:11;;;;;;;15.03;7.10;;;;;;;4.63;56.21;100119.38;4854876;29;20688;-65
2024/01/16 10:42:39;;;;;;;20.00;7.30;;;;;;;4.75;54.98;100111.34;4857180;29;20225;-64
2024/01/16 10:45:08;;;;;;;14.00;6.67;;;;;;;4.52;55.17;100105.28;4856934;29;20218;-65
2024/01/16 10:47:37;;;;;;;16.77;6.87;;;;;;;4.35;55.17;100107.50;4858375;29;20275;-65
2024/01/16 10:50:09;;;;;;;18.90;8.13;;;;;;;4.53;54.91;100103.47;4855697;29;20609;-65
2024/01/16 10:52:47;;;;;;;15.97;7.67;;;;;;;4.52;54.73;100104.44;4858276;29;20225;-64
2024/01/16 10:55:22;;;;;;;16.63;7.20;;;;;;;4.47;54.97;100096.09;4857379;29;20746;-64
2024/01/16 10:57:51;;;;;;;14.70;7.23;;;;;;;4.29;55.19;100090.47;4857954;29;20205;-64
2024/01/16 11:00:21;;;;;;;14.87;7.60;;;;;;;4.24;55.52;100086.50;4856749;29;20237;-65
2024/01/16 11:02:59;;;;;;;20.93;7.83;;;;;;;4.15;56.06;100074.91;4855540;29;20227;-65
2024/01/16 11:05:31;;;;;;;18.37;7.70;;;;;;;4.13;55.88;100079.47;4855321;29;20217;-65
2024/01/16 11:08:02;;;;;;;23.53;7.00;;;;;;;3.86;56.49;100069.25;4853503;29;20237;-65
2024/01/16 11:10:32;;;;;;;12.60;7.53;;;;;;;3.58;57.03;100072.25;4855788;29;20273;-64
2024/01/16 11:13:01;;;;;;;15.50;7.20;;;;;;;3.35;57.69;100082.63;4857421;29;20664;-63
2024/01/16 11:15:29;;;;;;;16.50;7.00;;;;;;;3.35;58.20;100073.94;4855502;29;20221;-64
2024/01/16 11:18:00;;;;;;;19.30;8.60;;;;;;;3.39;58.20;100080.63;4856321;29;20261;-64
2024/01/16 11:20:30;;;;;;;15.50;6.90;;;;;;;3.30;58.16;100069.03;4857513;29;20249;-65
2024/01/16 11:23:18;;;;;;;23.53;7.73;;;;;;;3.21;58.43;100067.09;4856113;29;21212;-64
2024/01/16 11:25:47;;;;;;;24.10;6.87;;;;;;;3.10;58.46;100059.16;4854549;29;20233;-64
2024/01/16 11:28:15;;;;;;;16.77;6.77;;;;;;;3.07;58.98;100054.16;4854893;29;20236;-65
2024/01/16 11:30:44;;;;;;;16.77;7.80;;;;;;;3.18;58.80;100058.59;4856363;29;20229;-65
2024/01/16 11:33:47;;;;;;;15.90;7.57;;;;;;;3.35;58.57;100059.03;4856762;29;20303;-65
2024/01/16 11:36:54;;;;;;;18.67;7.83;;;;;;;3.54;58.04;100045.44;4857756;29;20217;-66
2024/01/16 11:39:24;;;;;;;15.40;6.97;;;;;;;3.65;57.50;100037.59;4860741;29;20221;-65
2024/01/16 11:41:56;;;;;;;17.80;6.73;;;;;;;3.58;57.59;100043.44;4859052;29;20221;-66
2024/01/16 11:44:46;;;;;;;14.50;7.13;;;;;;;3.50;57.64;100035.28;4856086;29;20232;-63
2024/01/16 11:47:19;;;;;;;18.73;7.23;;;;;;;3.40;57.96;100035.97;4858862;29;20242;-64
2024/01/16 11:49:49;;;;;;;14.47;7.00;;;;;;;3.42;58.09;100029.78;4858525;29;20217;-65
2024/01/16 11:52:40;;;;;;;16.53;7.37;;;;;;;3.43;57.84;100018.34;4861349;29;20244;-63
2024/01/16 11:55:30;;;;;;;18.33;6.20;;;;;;;3.51;57.89;100013.38;4857988;29;20277;-65
2024/01/16 11:58:30;;;;;;;20.80;8.13;;;;;;;3.44;57.79;100015.59;4860353;29;20298;-64
2024/01/16 12:00:59;;;;;;;17.30;7.60;;;;;;;3.27;58.26;100016.00;4857311;29;20247;-64
2024/01/16 12:03:27;;;;;;;14.47;6.80;;;;;;;3.29;58.59;100014.94;4861029;29;20209;-63
2024/01/16 12:06:06;;;;;;;17.33;7.13;;;;;;;3.47;58.36;100012.75;4857770;29;20217;-64
2024/01/16 12:08:36;;;;;;;18.50;7.00;;;;;;;3.67;57.94;100006.88;4857989;29;20204;-65
2024/01/16 12:11:05;;;;;;;18.43;7.57;;;;;;;3.79;57.41;99999.84;4857678;29;20229;-64
2024/01/16 12:13:34;;;;;;;19.63;7.30;;;;;;;3.68;56.95;100002.47;4860960;29;20218;-64
2024/01/16 12:16:03;;;;;;;18.23;6.87;;;;;;;3.53;57.20;100004.44;4858862;29;20690;-65
2024/01/16 12:18:33;;;;;;;21.13;7.50;;;;;;;3.34;57.97;99994.47;4858539;29;20938;-63
2024/01/16 12:21:14;;;;;;;16.43;7.40;;;;;;;3.30;57.85;99995.66;4856036;29;20244;-63
2024/01/16 12:23:42;;;;;;;14.80;6.90;;;;;;;3.26;58.42;99996.81;4856498;29;20361;-64
2024/01/16 12:26:23;;;;;;;17.13;7.63;;;;;;;3.36;58.46;99995.19;4855845;29;20216;-64
2024/01/16 12:28:52;;;;;;;15.67;7.03;;;;;;;3.45;57.97;99995.47;4855631;29;20224;-63
2024/01/16 12:31:29;;;;;;;17.53;8.00;;;;;;;3.47;58.01;99986.53;4857141;29;20262;-63
2024/01/16 12:34:09;;;;;;;15.73;7.10;;;;;;;3.42;58.00;99982.59;4857702;29;20333;-64
2024/01/16 12:36:49;;;;;;;13.27;6.63;;;;;;;3.38;57.79;99980.19;4859176;29;20283;-64
2024/01/16 12:39:26;;;;;;;13.30;6.80;;;;;;;3.37;57.96;99972.44;4858423;29;20286;-66
2024/01/16 12:41:55;;;;;;;17.73;6.70;;;;;;;3.33;57.91;99974.47;4860291;29;20240;-63
2024/01/16 12:44:31;;;;;;;19.33;6.97;;;;;;;3.36;57.96;99961.13;4858929;29;20245;-63
2024/01/16 12:47:05;;;;;;;15.83;7.13;;;;;;;3.39;57.83;99963.53;4857992;29;20208;-63
2024/01/16 12:49:41;;;;;;;21.57;7.20;;;;;;;3.24;57.83;99963.84;4858230;29;20218;-62
2024/01/16 12:52:26;;;;;;;10.90;5.50;;;;;;;3.23;58.01;99957.78;4859257;29;20217;-64
2024/01/16 12:55:06;;;;;;;15.20;5.63;;;;;;;3.29;57.36;99954.69;4858429;29;20233;-65
2024/01/16 12:57:44;;;;;;;11.43;4.50;;;;;;;3.30;57.13;99945.88;4858003;29;20298;-65
2024/01/16 13:00:23;;;;;;;13.70;3.97;;;;;;;3.36;55.97;99934.91;4859805;29;20232;-64
2024/01/16 13:02:52;;;;;;;12.73;4.83;;;;;;;3.42;56.10;99940.66;4859362;29;20235;-64
2024/01/16 13:05:21;;;;;;;11.03;4.50;;;;;;;3.37;55.37;99947.06;4856459;29;20684;-65
2024/01/16 13:08:03;;;;;;;9.13;4.30;;;;;;;3.38;55.52;99945.28;4859403;29;20214;-64
2024/01/16 13:10:31;;;;;;;15.03;4.93;;;;;;;3.42;55.73;99949.38;4856438;29;20217;-64
2024/01/16 13:13:22;;;;;;;15.70;3.97;;;;;;;3.46;55.03;99939.47;4858270;29;20209;-64
2024/01/16 13:15:50;;;;;;;14.23;4.47;;;;;;;3.44;54.76;99938.75;4854285;29;20225;-64
2024/01/16 13:18:20;;;;;;;12.93;4.00;;;;;;;3.42;54.50;99936.25;4858200;29;20224;-63
2024/01/16 13:20:50;;;;;;;15.00;3.60;;;;;;;3.55;54.80;99925.66;4859447;29;20703;-64
2024/01/16 13:23:20;;;;;;;9.23;3.23;;;;;;;3.65;54.63;99926.63;4856055;29;20240;-65
2024/01/16 13:25:51;;;;;;;13.30;3.90;;;;;;;3.61;53.95;99925.19;4854632;29;20300;-65
2024/01/16 13:28:20;;;;;;;12.83;4.33;;;;;;;3.59;54.10;99909.59;4854852;29;20209;-64
2024/01/16 13:30:53;;;;;;;13.17;4.10;;;;;;;3.49;54.12;99908.63;4857768;29;20218;-64
2024/01/16 13:33:23;;;;;;;10.73;4.13;;;;;;;3.58;54.26;99909.72;4857246;29;20537;-64
2024/01/16 13:35:52;;;;;;;22.10;6.23;;;;;;;3.60;54.08;99910.44;4855834;29;20213;-64
2024/01/16 13:38:22;;;;;;;9.13;3.83;;;;;;;3.72;53.91;99904.22;4854337;29;20692;-65
2024/01/16 13:40:50;;;;;;;12.37;3.43;;;;;;;3.80;53.50;99901.84;4856991;29;20254;-64
2024/01/16 13:43:18;;;;;;;6.07;2.80;;;;;;;3.87;53.51;99899.63;4857396;29;20712;-65
2024/01/16 13:45:49;;;;;;;8.23;2.97;;;;;;;3.85;52.75;99889.25;4857648;29;20692;-65
2024/01/16 13:48:18;;;;;;;5.53;2.70;;;;;;;3.72;52.67;99891.13;4855433;29;20213;-66
2024/01/16 13:50:46;;;;;;;8.53;3.33;;;;;;;3.73;53.13;99887.56;4858507;29;20237;-65
2024/01/16 13:53:14;;;;;;;6.93;2.90;;;;;;;3.74;52.57;99886.59;4857232;29;20214;-65
2024/01/16 13:55:44;;;;;;;7.33;3.17;;;;;;;3.79;52.71;99894.94;4857548;29;20222;-64
2024/01/16 13:58:12;;;;;;;9.50;3.10;;;;;;;3.85;52.71;99902.34;4857560;29;20624;-65
2024/01/16 14:00:40;;;;;;;11.50;3.27;;;;;;;3.87;52.47;99903.03;4854214;29;20298;-65
2024/01/16 14:03:08;;;;;;;7.67;2.93;;;;;;;3.83;52.20;99901.63;4853241;29;20222;-66
2024/01/16 14:05:37;;;;;;;9.50;3.30;;;;;;;3.76;52.09;99901.28;4855270;29;20980;-65
2024/01/16 14:08:06;;;;;;;10.93;3.00;;;;;;;3.70;52.29;99909.59;4856484;29;20302;-64
2024/01/16 14:10:33;;;;;;;6.77;2.77;;;;;;;3.68;52.20;99900.19;4857070;29;20834;-64
2024/01/16 14:13:04;;;;;;;11.63;3.87;;;;;;;3.74;52.31;99899.72;4857417;29;20303;-65
2024/01/16 14:15:32;;;;;;;8.03;3.20;;;;;;;3.75;52.36;99890.91;4856213;29;20224;-65
2024/01/16 14:18:04;;;;;;;15.80;3.03;;;;;;;3.91;52.57;99888.75;4856889;29;20218;-64
2024/01/16 14:20:32;;;;;;;11.17;3.40;;;;;;;4.05;52.32;99890.28;4856949;29;20664;-65
2024/01/16 14:23:01;;;;;;;10.37;3.47;;;;;;;4.13;52.02;99882.66;4857031;29;20214;-65
2024/01/16 14:25:29;;;;;;;7.87;3.23;;;;;;;4.02;51.15;99893.16;4854712;29;20221;-64
2024/01/16 14:27:58;;;;;;;9.63;3.43;;;;;;;3.93;51.63;99884.22;4856501;29;20213;-65
2024/01/16 14:30:28;;;;;;;11.93;3.07;;;;;;;3.89;51.77;99889.81;4855686;29;20229;-67
2024/01/16 14:32:56;;;;;;;8.30;3.30;;;;;;;3.91;52.11;99893.16;4857519;29;20224;-65
2024/01/16 14:35:25;;;;;;;11.73;3.60;;;;;;;3.87;52.18;99892.56;4856558;29;20211;-65
2024/01/16 14:37:53;;;;;;;11.60;3.53;;;;;;;3.90;52.15;99892.31;4857147;29;20212;-65
2024/01/16 14:40:25;;;;;;;8.50;3.70;;;;;;;3.89;51.72;99889.81;4858290;29;20217;-65
2024/01/16 14:42:55;;;;;;;9.07;2.70;;;;;;;3.84;51.27;99886.72;4857324;29;20898;-65
2024/01/16 14:45:24;;;;;;;9.57;2.57;;;;;;;3.77;51.56;99884.59;4857632;29;20211;-65
2024/01/16 14:47:54;;;;;;;8.80;2.87;;;;;;;3.89;51.49;99890.66;4856384;29;20237;-66
2024/01/16 14:50:24;;;;;;;6.27;2.20;;;;;;;3.92;51.22;99889.59;4857112;29;20232;-65
2024/01/16 14:52:53;;;;;;;8.97;2.93;;;;;;;3.86;51.14;99892.69;4854656;29;20280;-64
2024/01/16 14:55:22;;;;;;;8.40;2.60;;;;;;;3.81;51.26;99885.16;4854528;29;20313;-65
2024/01/16 14:57:52;;;;;;;6.43;2.07;;;;;;;3.71;51.03;99892.06;4854591;29;20339;-64
2024/01/16 15:00:23;;;;;;;9.00;2.63;;;;;;;3.64;51.26;99896.13;4854201;29;20281;-64
2024/01/16 15:02:51;;;;;;;5.33;2.17;;;;;;;3.58;51.10;99894.00;4856939;29;20239;-64
2024/01/16 15:05:22;;;;;;;7.50;3.00;;;;;;;3.55;51.24;99887.19;4855891;29;20219;-64
2024/01/16 15:07:52;;;;;;;9.53;2.57;;;;;;;3.49;51.61;99892.06;4853447;29;20221;-64
2024/01/16 15:10:21;;;;;;;8.00;2.50;;;;;;;3.48;51.99;99885.16;4854567;29;20222;-65
2024/01/16 15:12:50;;;;;;;10.57;2.70;;;;;;;3.50;52.39;99878.00;4858304;29;20213;-64
2024/01/16 15:15:19;;;;;;;7.07;2.90;;;;;;;3.47;52.24;99873.84;4862061;29;20232;-64
2024/01/16 15:17:51;;;;;;;8.00;3.10;;;;;;;3.50;52.52;99873.59;4863137;29;20270;-65
2024/01/16 15:20:24;;;;;;;8.37;2.90;;;;;;;3.52;52.56;99871.69;4863218;29;20218;-66
2024/01/16 15:22:53;;;;;;;8.57;3.63;;;;;;;3.48;52.54;99878.13;4859116;29;20695;-65
2024/01/16 15:25:22;;;;;;;14.53;3.53;;;;;;;3.39;52.56;99873.59;4861535;29;20436;-65
2024/01/16 15:27:53;;;;;;;10.40;4.73;;;;;;;3.34;52.88;99876.53;4858461;29;20217;-65
2024/01/16 15:30:24;;;;;;;16.53;4.60;;;;;;;3.33;52.71;99876.69;4860711;29;20633;-65
2024/01/16 15:32:53;;;;;;;9.37;3.70;;;;;;;3.34;52.75;99878.34;4859688;29;20248;-65
2024/01/16 15:35:23;;;;;;;10.60;3.93;;;;;;;3.35;53.00;99878.22;4858461;29;20244;-65
2024/01/16 15:37:52;;;;;;;14.30;5.03;;;;;;;3.32;52.99;99882.88;4858730;29;20217;-64
2024/01/16 15:40:20;;;;;;;14.40;4.80;;;;;;;3.35;53.17;99885.25;4861042;29;20241;-65
2024/01/16 15:42:48;;;;;;;14.33;4.53;;;;;;;3.43;53.30;99884.69;4858575;29;20315;-66
2024/01/16 15:45:16;;;;;;;10.60;4.37;;;;;;;3.45;53.09;99872.28;4856612;29;20216;-65
2024/01/16 15:47:44;;;;;;;13.33;5.00;;;;;;;3.48;53.14;99879.91;4859334;29;20228;-64
2024/01/16 15:50:12;;;;;;;11.07;4.23;;;;;;;3.45;53.12;99874.88;4858488;29;20780;-64
2024/01/16 15:52:41;;;;;;;9.33;3.90;;;;;;;3.47;53.60;99873.84;4858632;29;20754;-65
2024/01/16 15:55:10;;;;;;;14.13;4.40;;;;;;;3.47;53.36;99875.63;4856250;29;20699;-64
2024/01/16 15:57:38;;;;;;;17.27;4.40;;;;;;;3.44;53.49;99874.06;4858194;29;20210;-65
2024/01/16 16:00:09;;;;;;;14.10;4.43;;;;;;;3.40;53.46;99877.88;4859596;29;20312;-64
2024/01/16 16:02:37;;;;;;;11.87;3.83;;;;;;;3.36;53.63;99869.41;4858131;29;20241;-64
2024/01/16 16:05:07;;;;;;;15.10;4.40;;;;;;;3.42;53.67;99870.75;4854689;29;20225;-66
2024/01/16 16:07:35;;;;;;;11.33;4.43;;;;;;;3.50;53.76;99868.38;4856137;29;20292;-65
2024/01/16 16:10:04;;;;;;;16.47;5.57;;;;;;;3.55;53.60;99857.50;4857216;29;20215;-65
2024/01/16 16:12:32;;;;;;;13.47;5.80;;;;;;;3.61;53.54;99857.88;4857388;29;20217;-64
2024/01/16 16:15:00;;;;;;;15.57;6.03;;;;;;;3.61;53.63;99862.28;4856132;29;20654;-65
2024/01/16 16:17:28;;;;;;;16.43;5.57;;;;;;;3.51;53.51;99880.53;4857899;29;20211;-64
2024/01/16 16:19:57;;;;;;;14.87;6.40;;;;;;;3.39;53.76;99873.59;4857825;29;20209;-64
2024/01/16 16:22:24;;;;;;;13.73;4.77;;;;;;;3.33;54.05;99872.28;4857383;29;20234;-65
2024/01/16 16:24:54;;;;;;;16.67;6.47;;;;;;;3.37;54.10;99884.19;4859590;29;20254;-68
2024/01/16 16:27:24;;;;;;;12.90;6.17;;;;;;;3.36;53.91;99882.50;4860600;29;20235;-65
2024/01/16 16:29:53;;;;;;;19.70;6.53;;;;;;;3.35;53.70;99891.31;4859501;29;20209;-64
2024/01/16 16:32:22;;;;;;;22.47;7.60;;;;;;;3.29;54.10;99886.53;4860406;29;20224;-65
2024/01/16 16:34:50;;;;;;;20.67;7.40;;;;;;;3.24;53.89;99883.44;4857878;29;20667;-65
2024/01/16 16:37:18;;;;;;;19.87;8.50;;;;;;;3.18;54.08;99888.28;4862629;29;20575;-63
2024/01/16 16:39:46;;;;;;;31.83;7.27;;;;;;;3.13;54.44;99891.28;4861340;29;20215;-65
2024/01/16 16:42:14;;;;;;;21.20;7.87;;;;;;;3.06;54.64;99884.84;4856684;29;20261;-64
2024/01/16 16:44:47;;;;;;;43.10;14.10;;;;;;;3.02;54.99;99878.13;4857442;29;20296;-64
2024/01/16 16:47:16;;;;;;;48.90;17.53;;;;;;;2.98;55.17;99887.19;4864957;29;20217;-64
2024/01/16 16:49:45;;;;;;;36.90;16.03;;;;;;;2.95;54.83;99890.88;4845096;29;20290;-64
2024/01/16 16:52:13;;;;;;;37.47;13.43;;;;;;;2.90;55.11;99887.72;4864098;29;20779;-64
2024/01/16 16:54:45;;;;;;;22.20;9.20;;;;;;;2.89;54.90;99890.50;4861340;29;20221;-64
2024/01/16 16:57:14;;;;;;;14.30;7.80;;;;;;;2.89;55.13;99890.50;4864746;29;20648;-66
2024/01/16 16:59:41;;;;;;;14.40;6.67;;;;;;;2.84;55.25;99892.59;4860720;29;20219;-64
2024/01/16 17:02:11;;;;;;;14.90;7.00;;;;;;;2.83;55.19;99893.53;4862186;29;20294;-64
2024/01/16 17:04:40;;;;;;;20.80;7.83;;;;;;;2.82;55.46;99897.09;4859382;29;20208;-66
2024/01/16 17:07:09;;;;;;;23.53;8.63;;;;;;;2.89;55.70;99900.97;4862589;29;20224;-64
2024/01/16 17:09:41;;;;;;;23.50;8.77;;;;;;;2.91;55.53;99893.81;4859055;29;20211;-64
2024/01/16 17:12:09;;;;;;;18.90;6.93;;;;;;;2.89;55.50;99887.88;4859561;29;20222;-64
2024/01/16 17:14:38;;;;;;;15.17;6.77;;;;;;;2.88;55.33;99891.44;4854599;29;20583;-66
2024/01/16 17:17:06;;;;;;;16.13;7.13;;;;;;;2.85;55.38;99896.88;4857217;29;20296;-64
2024/01/16 17:19:38;;;;;;;18.33;6.43;;;;;;;2.93;55.52;99892.75;4859306;29;20203;-65
2024/01/16 17:22:07;;;;;;;16.13;6.03;;;;;;;2.94;55.72;99890.97;4855688;29;20248;-65
2024/01/16 17:24:36;;;;;;;18.73;7.60;;;;;;;2.94;55.71;99891.81;4855495;29;20257;-64
2024/01/16 17:27:05;;;;;;;19.13;9.00;;;;;;;2.88;55.57;99887.03;4855865;29;20300;-65
2024/01/16 17:29:33;;;;;;;28.17;12.47;;;;;;;2.83;55.47;99881.28;4859069;29;20218;-65
2024/01/16 17:32:03;;;;;;;38.87;13.23;;;;;;;2.80;55.73;99883.31;4855128;29;20218;-65
2024/01/16 17:34:30;;;;;;;29.37;13.43;;;;;;;2.75;55.61;99865.31;4858044;29;20211;-65
2024/01/16 17:37:00;;;;;;;29.13;12.77;;;;;;;2.70;56.07;99869.22;4858401;29;20327;-65
2024/01/16 17:39:28;;;;;;;26.80;13.27;;;;;;;2.67;56.13;99859.81;4855941;29;20616;-66
2024/01/16 17:41:56;;;;;;;25.90;11.17;;;;;;;2.75;56.31;99856.63;4858342;29;20205;-65
2024/01/16 17:44:24;;;;;;;18.73;8.30;;;;;;;2.63;56.43;99845.28;4856592;29;20319;-65
2024/01/16 17:46:52;;;;;;;16.00;7.57;;;;;;;2.64;56.69;99841.69;4855737;29;20288;-65
2024/01/16 17:49:21;;;;;;;19.20;8.23;;;;;;;2.64;56.49;99842.53;4858162;29;20285;-64
2024/01/16 17:51:49;;;;;;;22.27;7.70;;;;;;;2.68;56.60;99840.53;4856995;29;20204;-65
2024/01/16 17:54:18;;;;;;;19.60;7.73;;;;;;;2.70;56.54;99830.78;4856776;29;20632;-66
2024/01/16 17:56:47;;;;;;;21.60;7.43;;;;;;;2.67;56.51;99822.31;4858509;29;20307;-65
2024/01/16 17:59:15;;;;;;;16.37;6.80;;;;;;;2.67;56.54;99817.91;4857244;29;20211;-64
2024/01/16 18:01:43;;;;;;;22.63;7.50;;;;;;;2.67;56.54;99815.31;4855512;29;20286;-65
2024/01/16 18:04:13;;;;;;;24.57;9.93;;;;;;;2.65;56.51;99818.03;4855983;29;21138;-65
2024/01/16 18:06:42;;;;;;;26.97;10.37;;;;;;;2.64;56.63;99810.28;4855415;29;20207;-66
2024/01/16 18:09:11;;;;;;;20.40;9.07;;;;;;;2.60;56.43;99801.84;4857272;29;20675;-66
2024/01/16 18:11:54;;;;;;;22.47;8.97;;;;;;;2.51;56.49;99799.91;4856478;29;20214;-64
2024/01/16 18:14:23;;;;;;;24.03;9.93;;;;;;;2.45;57.00;99787.28;4857447;29;20239;-65
2024/01/16 18:16:53;;;;;;;26.30;11.33;;;;;;;2.44;57.07;99792.63;4858324;29;20238;-65
2024/01/16 18:19:22;;;;;;;21.77;11.00;;;;;;;2.41;57.05;99792.84;4856537;29;20278;-64
2024/01/16 18:21:50;;;;;;;27.50;11.23;;;;;;;2.41;57.09;99791.06;4857160;29;20203;-65
2024/01/16 18:24:18;;;;;;;22.20;10.37;;;;;;;2.35;57.14;99803.75;4855534;29;20325;-64
2024/01/16 18:26:47;;;;;;;23.27;9.73;;;;;;;2.33;57.18;99801.25;4857141;29;20737;-64
2024/01/16 18:29:19;;;;;;;30.57;12.63;;;;;;;2.29;57.35;99797.19;4857254;29;20222;-64
2024/01/16 18:31:47;;;;;;;24.17;10.10;;;;;;;2.26;57.57;99805.25;4855741;29;20650;-64
2024/01/16 18:34:20;;;;;;;25.70;9.63;;;;;;;2.18;57.48;99797.16;4856603;29;20231;-66
2024/01/16 18:36:49;;;;;;;26.30;8.70;;;;;;;2.09;57.86;99796.03;4856562;29;20195;-65
2024/01/16 18:39:19;;;;;;;18.70;6.70;;;;;;;2.06;57.28;99800.63;4855228;29;20212;-64
2024/01/16 18:41:48;;;;;;;15.60;7.07;;;;;;;1.99;57.35;99787.16;4859096;29;20825;-65
2024/01/16 18:44:19;;;;;;;20.70;7.30;;;;;;;1.97;57.40;99788.22;4854992;29;20269;-65
2024/01/16 18:46:47;;;;;;;20.30;7.67;;;;;;;1.93;57.49;99782.41;4857533;29;20714;-64
2024/01/16 18:49:16;;;;;;;20.13;7.60;;;;;;;1.91;57.28;99783.44;4856937;29;20215;-64
2024/01/16 18:51:47;;;;;;;15.23;7.27;;;;;;;1.86;57.22;99778.53;4857133;29;20242;-64
2024/01/16 18:54:15;;;;;;;16.87;7.37;;;;;;;1.80;57.27;99774.56;4858352;29;20211;-64
2024/01/16 18:56:43;;;;;;;22.70;8.27;;;;;;;1.91;57.64;99776.44;4855260;29;20211;-66
2024/01/16 18:59:11;;;;;;;16.03;7.77;;;;;;;2.01;57.48;99774.00;4854790;29;20298;-64
2024/01/16 19:01:41;;;;;;;22.07;9.97;;;;;;;2.05;57.43;99776.25;4854674;29;20214;-63
2024/01/16 19:04:12;;;;;;;22.17;9.83;;;;;;;2.08;57.32;99767.38;4857343;29;20245;-64
2024/01/16 19:06:44;;;;;;;21.70;9.80;;;;;;;2.11;57.23;99767.97;4857432;29;20222;-64
2024/01/16 19:09:13;;;;;;;29.70;11.03;;;;;;;2.15;56.83;99765.97;4853981;29;20223;-64
2024/01/16 19:11:48;;;;;;;27.87;11.17;;;;;;;2.13;56.99;99762.63;4855519;29;20230;-64
2024/01/16 19:14:16;;;;;;;18.63;9.60;;;;;;;2.15;56.68;99755.50;4857065;29;20734;-67
2024/01/16 19:16:47;;;;;;;31.23;11.93;;;;;;;2.16;56.85;99759.78;4854506;29;20214;-64
2024/01/16 19:19:15;;;;;;;19.80;9.30;;;;;;;2.16;56.87;99754.56;4858666;29;20211;-64
2024/01/16 19:21:43;;;;;;;28.30;10.97;;;;;;;2.18;56.93;99757.91;4857398;29;20218;-63
2024/01/16 19:24:17;;;;;;;24.27;10.27;;;;;;;2.20;56.74;99750.75;4855203;29;20326;-66
2024/01/16 19:26:46;;;;;;;22.70;9.97;;;;;;;2.18;56.68;99744.84;4857264;29;20203;-64
2024/01/16 19:29:14;;;;;;;23.20;10.17;;;;;;;2.18;56.68;99757.91;4855500;29;20219;-65
2024/01/16 19:31:46;;;;;;;20.87;9.93;;;;;;;2.18;56.82;99760.53;4857886;29;20218;-68
2024/01/16 19:34:14;;;;;;;24.60;11.30;;;;;;;2.17;56.75;99743.16;4855743;29;20761;-64
2024/01/16 19:36:42;;;;;;;25.60;11.57;;;;;;;2.11;57.06;99735.78;4855889;29;20215;-65
2024/01/16 19:39:14;;;;;;;26.40;11.27;;;;;;;2.06;57.11;99740.47;4856465;29;20279;-65
2024/01/16 19:41:43;;;;;;;28.80;11.97;;;;;;;1.97;57.24;99731.53;4857219;29;20289;-64
2024/01/16 19:44:11;;;;;;;26.23;11.37;;;;;;;1.86;57.49;99723.63;4854992;29;20238;-64